createdAt,value
2019-03-08T00:02:01.909Z,24.1
2019-03-08T00:12:01.122Z,24.3
2019-03-08T00:22:00.324Z,24.6
2019-03-08T00:31:59.635Z,24.4
2019-03-08T00:41:58.748Z,24.1
2019-03-08T00:51:57.956Z,24
2019-03-08T01:01:57.167Z,24.1
2019-03-08T01:11:56.375Z,24
2019-03-08T01:21:55.590Z,24
2019-03-08T01:31:54.796Z,23.3
2019-03-08T01:41:54.008Z,23.6
2019-03-08T01:51:53.216Z,24.3
2019-03-08T02:01:52.425Z,25.3
2019-03-08T02:11:51.735Z,24.9
2019-03-08T02:21:50.844Z,24.6
2019-03-08T02:31:50.061Z,24.3
2019-03-08T02:41:49.265Z,24.1
2019-03-08T02:51:48.474Z,24.1
2019-03-08T03:01:47.685Z,24.3
2019-03-08T03:11:46.894Z,24.2
2019-03-08T03:21:46.102Z,23.1
2019-03-08T03:31:45.312Z,23.4
2019-03-08T03:41:44.520Z,23.6
2019-03-08T03:51:43.730Z,24.3
2019-03-08T04:01:42.940Z,23.9
2019-03-08T04:11:42.148Z,24.3
2019-03-08T04:21:41.359Z,24.3
2019-03-08T04:31:40.567Z,24
2019-03-08T04:41:39.781Z,23.5
2019-03-08T04:51:38.987Z,23.4
2019-03-08T05:01:38.199Z,23.3
2019-03-08T05:11:37.409Z,23.3
2019-03-08T05:21:36.621Z,23.9
2019-03-08T05:31:35.833Z,25.1
2019-03-08T05:41:35.046Z,25
2019-03-08T05:51:34.256Z,24.8
2019-03-08T06:01:33.467Z,24.8
2019-03-08T06:11:32.679Z,24.4
2019-03-08T06:21:31.888Z,24.2
2019-03-08T06:31:31.149Z,23.8
2019-03-08T06:41:30.310Z,24.9
2019-03-08T06:51:29.521Z,25.6
2019-03-08T07:01:28.731Z,25.6
2019-03-08T07:11:27.945Z,25.4
2019-03-08T07:21:27.154Z,25.6
2019-03-08T07:31:26.364Z,26
2019-03-08T07:41:25.576Z,26.3
2019-03-08T07:51:24.787Z,25.9
2019-03-08T08:01:23.999Z,25.6
2019-03-08T08:11:23.210Z,25.4
2019-03-08T08:21:22.420Z,25.7
2019-03-08T08:31:21.635Z,26.1
2019-03-08T08:41:20.848Z,26.1
2019-03-08T08:51:20.058Z,26.3
2019-03-08T09:01:19.270Z,26.4
2019-03-08T09:11:18.485Z,26.6
2019-03-08T09:21:17.693Z,26.5
2019-03-08T09:31:16.905Z,26.7
2019-03-08T09:41:16.122Z,26.6
2019-03-08T09:51:15.330Z,26.6
2019-03-08T10:01:16.723Z,26.6
2019-03-08T10:11:13.755Z,26.9
2019-03-08T10:21:12.970Z,26.8
2019-03-08T10:31:12.183Z,26.4
2019-03-08T10:41:11.394Z,26.3
2019-03-08T10:51:10.607Z,26.8
2019-03-08T11:01:09.819Z,26.9
2019-03-08T11:11:09.031Z,26.8
2019-03-08T11:21:08.244Z,26.3
2019-03-08T11:31:07.456Z,26.9
2019-03-08T11:41:06.672Z,26.9
2019-03-08T11:51:05.879Z,26.8
2019-03-08T12:01:05.093Z,25.9
2019-03-08T12:11:04.306Z,25.6
2019-03-08T12:21:03.515Z,25.8
2019-03-08T12:31:02.727Z,26.4
2019-03-08T12:41:01.939Z,26.9
2019-03-08T12:51:01.151Z,27.2
2019-03-08T13:01:00.361Z,27
2019-03-08T13:10:59.573Z,26.7
2019-03-08T13:20:58.786Z,26.4
2019-03-08T13:30:57.997Z,26.4
2019-03-08T13:40:57.210Z,26.6
2019-03-08T13:50:56.419Z,26.8
2019-03-08T14:00:55.634Z,26.7
2019-03-08T14:10:54.846Z,26.3
2019-03-08T14:20:54.053Z,26.3
2019-03-08T14:30:57.676Z,26.8
2019-03-08T14:40:56.952Z,26.7
2019-03-08T14:50:51.686Z,26.4
2019-03-08T15:00:50.897Z,26.1
2019-03-08T15:10:51.318Z,27
2019-03-08T15:20:49.320Z,27.2
2019-03-08T15:30:48.532Z,27
2019-03-08T15:40:48.809Z,26.6
2019-03-08T15:50:48.026Z,25.7
2019-03-08T16:00:46.163Z,26.4
2019-03-08T16:10:45.374Z,27.1
2019-03-08T16:20:44.588Z,27
2019-03-08T16:30:47.394Z,26.5
2019-03-08T16:40:43.006Z,25.9
2019-03-08T16:50:42.219Z,25.9
2019-03-08T17:00:41.435Z,25.8
2019-03-08T17:10:40.649Z,25.9
2019-03-08T17:20:39.855Z,25.4
2019-03-08T17:30:39.066Z,25.4
2019-03-08T17:40:38.279Z,25.4
2019-03-08T17:50:37.490Z,25.6
2019-03-08T18:00:36.701Z,26.1
2019-03-08T18:10:35.915Z,25.4
2019-03-08T18:20:35.125Z,25.4
2019-03-08T18:30:34.337Z,24.9
2019-03-08T18:40:33.548Z,25.2
2019-03-08T18:53:32.346Z,25.9
2019-03-08T19:03:31.561Z,26
2019-03-08T19:13:30.768Z,25.8
2019-03-08T19:23:29.977Z,25.7
2019-03-08T19:33:29.189Z,25.4
2019-03-08T19:43:28.404Z,25.1
2019-03-08T19:53:27.611Z,25.4
2019-03-08T20:03:26.905Z,25.2
2019-03-08T20:13:26.189Z,25.2
2019-03-08T20:23:25.478Z,24.8
2019-03-08T20:33:24.770Z,24.8
2019-03-08T20:43:24.063Z,25.2
2019-03-08T20:53:23.313Z,25.4
2019-03-08T21:03:22.524Z,25.2
2019-03-08T21:13:21.745Z,24.9
2019-03-08T21:23:20.999Z,24.7
2019-03-08T21:29:38.756Z,24.8
2019-03-08T21:39:37.963Z,24.8
2019-03-08T21:49:39.263Z,24.5
2019-03-08T21:59:36.386Z,24.6
2019-03-08T22:09:35.598Z,24.6
2019-03-08T22:19:34.811Z,24.5
2019-03-08T22:29:34.020Z,24.5
2019-03-08T22:39:33.305Z,24.5
2019-03-08T22:49:32.588Z,24.3
2019-03-08T22:59:31.877Z,24.2
2019-03-08T23:09:31.163Z,24.1
2019-03-08T23:19:30.450Z,24.1
2019-03-08T23:29:29.699Z,24.1
2019-03-08T23:35:23.274Z,24.2
2019-03-08T23:45:22.483Z,24.1
2019-03-08T23:55:21.701Z,24
